Arispe, Iowa
Current Conditions -  °F | °C
As of 2:55 PM on Tuesday 21 Oct 2014 (Local Time) from KCSQ Reporting Station
Clear Clear  
Wind Chill: 70°   Ceiling: Unl
Heat Index: 70°   Visibility: 10mi
Dew Point: 41°   Wind: 7mph
Humidity: 35%   Direction: 130°SE
Pressure: 30.09"   Gusts: NA
Location:  40.95°N, 94.22°W
Report Text: KCSQ 211955Z AUTO 13006KT 10SM CLR 21/05 A3009 RMK AO2
Loading
Personal Weather Stations






























Interactive Weather Map New forecast layout! Learn more

10-Day Weather Forecast

Advertisements
Track Severe Weather on mobile